Time;durP1;ratioP1;P1;durP2;ratioP2;P2;SDS_P1;SDS_P2;PMS_P1;PMS_P2;Temp;Humidity;BMP_temperature;BMP_pressure;BME280_temperature;BME280_humidity;BME280_pressure;Samples;Min_cycle;Max_cycle;Signal;HPM_P1;HPM_P2
2021/09/12 00:02:23;;;;;;;13.18;7.97;;;;;;;;;;5112997;28;20032;-68
2021/09/12 00:04:49;;;;;;;13.23;8.82;;;;;;;;;;5113359;28;20030;-68
2021/09/12 00:07:15;;;;;;;9.82;7.75;;;;;;;;;;5113292;28;20031;-68
2021/09/12 00:09:41;;;;;;;12.77;8.43;;;;;;;;;;5113282;28;20464;-68
2021/09/12 00:12:07;;;;;;;14.73;8.48;;;;;;;;;;5113302;28;20023;-71
2021/09/12 00:14:33;;;;;;;15.88;8.43;;;;;;;;;;5112925;28;20052;-69
2021/09/12 00:16:59;;;;;;;15.13;8.57;;;;;;;;;;5112787;28;20032;-68
2021/09/12 00:19:25;;;;;;;11.63;8.52;;;;;;;;;;5113252;28;20038;-68
2021/09/12 00:21:52;;;;;;;11.10;8.30;;;;;;;;;;5111823;28;20114;-68
2021/09/12 00:24:18;;;;;;;16.48;8.88;;;;;;;;;;5113379;28;20059;-68
2021/09/12 00:26:45;;;;;;;10.85;8.30;;;;;;;;;;5112826;28;20476;-68
2021/09/12 00:29:11;;;;;;;12.85;8.80;;;;;;;;;;5113257;28;20023;-68
2021/09/12 00:31:37;;;;;;;14.48;8.30;;;;;;;;;;5113043;28;20039;-69
2021/09/12 00:34:03;;;;;;;15.05;8.05;;;;;;;;;;5113102;28;20539;-69
2021/09/12 00:36:29;;;;;;;15.68;8.25;;;;;;;;;;5112546;28;20352;-68
2021/09/12 00:38:55;;;;;;;11.52;8.30;;;;;;;;;;5112816;28;20472;-70
2021/09/12 00:41:21;;;;;;;15.02;8.30;;;;;;;;;;5112954;28;20035;-69
2021/09/12 00:43:47;;;;;;;16.48;8.02;;;;;;;;;;5113301;28;20116;-69
2021/09/12 00:46:13;;;;;;;10.95;8.48;;;;;;;;;;5112898;28;20019;-69
2021/09/12 00:48:39;;;;;;;14.45;8.40;;;;;;;;;;5112936;28;20045;-69
2021/09/12 00:51:05;;;;;;;15.15;10.00;;;;;;;;;;5112621;28;20058;-68
2021/09/12 00:53:32;;;;;;;13.48;8.88;;;;;;;;;;5112765;28;20028;-68
2021/09/12 00:56:00;;;;;;;17.90;8.15;;;;;;;;;;5112682;28;20034;-71
2021/09/12 00:58:28;;;;;;;13.48;8.20;;;;;;;;;;5110940;28;20081;-69
2021/09/12 01:00:54;;;;;;;14.02;8.48;;;;;;;;;;5111918;28;20111;-68
2021/09/12 01:03:20;;;;;;;12.15;8.57;;;;;;;;;;5113414;28;20499;-69
2021/09/12 01:05:46;;;;;;;10.02;8.13;;;;;;;;;;5115436;27;20055;-68
2021/09/12 01:08:12;;;;;;;10.20;8.75;;;;;;;;;;5114488;28;20031;-67
2021/09/12 01:10:38;;;;;;;12.18;8.40;;;;;;;;;;5116130;28;20055;-68
2021/09/12 01:13:05;;;;;;;10.20;8.02;;;;;;;;;;5116023;28;20024;-71
2021/09/12 01:15:31;;;;;;;12.15;8.30;;;;;;;;;;5116168;27;20023;-68
2021/09/12 01:17:57;;;;;;;14.50;8.93;;;;;;;;;;5114510;28;20558;-68
2021/09/12 01:20:23;;;;;;;13.15;8.68;;;;;;;;;;5115531;28;20102;-71
2021/09/12 01:22:50;;;;;;;9.95;8.85;;;;;;;;;;5115631;28;20484;-68
2021/09/12 01:25:16;;;;;;;14.80;9.07;;;;;;;;;;5115680;28;20024;-69
2021/09/12 01:27:43;;;;;;;12.05;8.82;;;;;;;;;;5115438;28;20028;-68
2021/09/12 01:30:10;;;;;;;12.05;8.43;;;;;;;;;;5116172;28;20494;-68
2021/09/12 01:32:36;;;;;;;11.65;9.18;;;;;;;;;;5115648;28;20026;-68
2021/09/12 01:35:02;;;;;;;15.32;8.57;;;;;;;;;;5115595;28;20024;-68
2021/09/12 01:37:28;;;;;;;11.63;9.05;;;;;;;;;;5115561;28;20047;-68
2021/09/12 01:39:55;;;;;;;10.68;8.25;;;;;;;;;;5115594;27;20111;-68
2021/09/12 01:42:21;;;;;;;15.27;9.20;;;;;;;;;;5115474;28;20024;-68
2021/09/12 01:44:48;;;;;;;14.63;9.82;;;;;;;;;;5115000;28;20051;-68
2021/09/12 01:47:14;;;;;;;12.70;8.90;;;;;;;;;;5114902;28;20480;-68
2021/09/12 01:49:40;;;;;;;11.02;8.75;;;;;;;;;;5115300;28;20024;-69
2021/09/12 01:52:06;;;;;;;11.48;9.05;;;;;;;;;;5114976;28;20023;-68
2021/09/12 01:54:32;;;;;;;16.63;9.13;;;;;;;;;;5115176;28;20536;-68
2021/09/12 01:56:58;;;;;;;13.20;8.82;;;;;;;;;;5114941;28;20035;-71
2021/09/12 01:59:24;;;;;;;11.63;8.70;;;;;;;;;;5115025;28;20484;-68
2021/09/12 02:01:50;;;;;;;11.20;7.95;;;;;;;;;;5115177;28;20039;-68
2021/09/12 02:04:16;;;;;;;12.60;8.32;;;;;;;;;;5114896;28;20028;-68
2021/09/12 02:06:42;;;;;;;10.82;8.85;;;;;;;;;;5115031;28;20032;-68
2021/09/12 02:09:08;;;;;;;13.18;8.40;;;;;;;;;;5115208;28;20019;-68
2021/09/12 02:11:34;;;;;;;10.18;8.25;;;;;;;;;;5115746;28;20023;-68
2021/09/12 02:14:01;;;;;;;12.75;8.02;;;;;;;;;;5115484;28;20026;-72
2021/09/12 02:16:27;;;;;;;13.50;8.73;;;;;;;;;;5115454;28;20106;-68
2021/09/12 02:18:53;;;;;;;12.00;8.30;;;;;;;;;;5115056;28;20062;-69
2021/09/12 02:21:19;;;;;;;13.68;8.00;;;;;;;;;;5114734;28;20034;-72
2021/09/12 02:23:45;;;;;;;11.85;7.70;;;;;;;;;;5115083;28;20131;-68
2021/09/12 02:26:11;;;;;;;11.07;8.15;;;;;;;;;;5114945;28;20485;-69
2021/09/12 02:28:37;;;;;;;13.02;7.50;;;;;;;;;;5114760;28;20425;-68
2021/09/12 02:31:03;;;;;;;12.18;8.63;;;;;;;;;;5114857;28;20049;-72
2021/09/12 02:33:29;;;;;;;10.23;9.13;;;;;;;;;;5114578;28;20027;-71
2021/09/12 02:35:55;;;;;;;11.25;8.02;;;;;;;;;;5114267;28;20108;-68
2021/09/12 02:38:21;;;;;;;8.88;7.97;;;;;;;;;;5114358;28;20052;-68
2021/09/12 02:40:47;;;;;;;14.02;8.40;;;;;;;;;;5114648;28;20023;-69
2021/09/12 02:43:13;;;;;;;17.73;9.13;;;;;;;;;;5114553;28;20051;-68
2021/09/12 02:45:39;;;;;;;10.98;8.88;;;;;;;;;;5114257;28;20377;-68
2021/09/12 02:48:06;;;;;;;12.02;9.25;;;;;;;;;;5113953;28;20023;-68
2021/09/12 02:50:32;;;;;;;12.77;8.88;;;;;;;;;;5114339;28;20035;-68
2021/09/12 02:52:58;;;;;;;10.88;9.35;;;;;;;;;;5114229;28;20395;-68
2021/09/12 02:55:24;;;;;;;14.57;9.07;;;;;;;;;;5114195;28;20016;-71
2021/09/12 02:57:50;;;;;;;15.23;8.98;;;;;;;;;;5114297;28;20108;-69
2021/09/12 03:00:16;;;;;;;9.82;8.88;;;;;;;;;;5114122;28;20467;-68
2021/09/12 03:02:42;;;;;;;20.20;9.00;;;;;;;;;;5114166;28;20048;-69
2021/09/12 03:05:08;;;;;;;10.63;8.82;;;;;;;;;;5113912;28;20429;-68
2021/09/12 03:07:34;;;;;;;11.43;8.85;;;;;;;;;;5113906;28;20046;-68
2021/09/12 03:10:00;;;;;;;14.90;9.15;;;;;;;;;;5113890;28;20031;-68
2021/09/12 03:12:26;;;;;;;18.05;9.80;;;;;;;;;;5113920;28;20023;-69
2021/09/12 03:14:53;;;;;;;10.35;8.73;;;;;;;;;;5113957;28;20024;-68
2021/09/12 03:17:19;;;;;;;18.02;8.27;;;;;;;;;;5114124;28;20107;-68
2021/09/12 03:19:45;;;;;;;13.90;8.45;;;;;;;;;;5113753;28;20384;-68
2021/09/12 03:22:11;;;;;;;11.82;8.68;;;;;;;;;;5114033;28;20035;-68
2021/09/12 03:24:37;;;;;;;10.05;9.05;;;;;;;;;;5113092;28;20032;-68
2021/09/12 03:27:03;;;;;;;14.93;8.75;;;;;;;;;;5113636;28;20019;-69
2021/09/12 03:29:29;;;;;;;18.77;8.35;;;;;;;;;;5113971;28;20019;-68
2021/09/12 03:31:55;;;;;;;10.90;8.80;;;;;;;;;;5113648;28;20104;-69
2021/09/12 03:34:21;;;;;;;14.60;9.30;;;;;;;;;;5114000;28;20024;-69
2021/09/12 03:36:47;;;;;;;10.02;9.00;;;;;;;;;;5113256;28;20049;-69
2021/09/12 03:39:13;;;;;;;14.73;8.15;;;;;;;;;;5113592;28;20098;-71
2021/09/12 03:41:39;;;;;;;15.32;8.90;;;;;;;;;;5113888;28;20024;-68
2021/09/12 03:44:05;;;;;;;13.45;9.18;;;;;;;;;;5113573;28;20098;-68
2021/09/12 03:46:31;;;;;;;15.32;8.95;;;;;;;;;;5113586;28;20031;-71
2021/09/12 03:48:57;;;;;;;11.68;8.80;;;;;;;;;;5113624;28;20023;-69
2021/09/12 03:51:23;;;;;;;9.25;8.20;;;;;;;;;;5113316;28;20020;-71
2021/09/12 03:53:49;;;;;;;14.02;8.82;;;;;;;;;;5113470;28;20039;-71
2021/09/12 03:56:15;;;;;;;10.48;8.52;;;;;;;;;;5113370;28;20024;-68
2021/09/12 03:58:41;;;;;;;13.65;8.52;;;;;;;;;;5113438;28;20031;-69
2021/09/12 04:01:07;;;;;;;10.82;8.82;;;;;;;;;;5113487;28;20380;-68
2021/09/12 04:03:33;;;;;;;12.38;8.43;;;;;;;;;;5113308;28;20036;-68
2021/09/12 04:05:59;;;;;;;11.32;7.78;;;;;;;;;;5112868;28;20019;-68
2021/09/12 04:08:25;;;;;;;11.38;8.27;;;;;;;;;;5113201;28;20379;-68
2021/09/12 04:10:51;;;;;;;9.88;7.88;;;;;;;;;;5113212;28;20024;-68
2021/09/12 04:13:17;;;;;;;12.35;8.02;;;;;;;;;;5113050;28;20028;-68
2021/09/12 04:15:43;;;;;;;9.30;8.23;;;;;;;;;;5113152;28;20055;-68
2021/09/12 04:18:09;;;;;;;13.13;8.35;;;;;;;;;;5112956;28;20074;-67
2021/09/12 04:20:35;;;;;;;10.02;8.50;;;;;;;;;;5113451;28;20019;-68
2021/09/12 04:23:01;;;;;;;12.60;8.80;;;;;;;;;;5113201;28;20042;-68
2021/09/12 04:25:27;;;;;;;15.88;9.68;;;;;;;;;;5113211;28;20383;-69
2021/09/12 04:27:53;;;;;;;11.15;8.00;;;;;;;;;;5113105;28;20038;-68
2021/09/12 04:30:19;;;;;;;11.73;8.15;;;;;;;;;;5113020;28;20047;-71
2021/09/12 04:32:45;;;;;;;9.75;8.07;;;;;;;;;;5112977;28;20059;-72
2021/09/12 04:35:11;;;;;;;12.02;8.60;;;;;;;;;;5113680;28;20416;-68
2021/09/12 04:37:37;;;;;;;11.55;8.63;;;;;;;;;;5116528;28;20138;-69
2021/09/12 04:40:04;;;;;;;12.93;8.50;;;;;;;;;;5116748;28;20020;-69
2021/09/12 04:42:30;;;;;;;13.48;9.65;;;;;;;;;;5117241;28;20543;-72
2021/09/12 04:44:56;;;;;;;13.38;8.80;;;;;;;;;;5116943;28;20466;-68
2021/09/12 04:47:22;;;;;;;13.60;8.90;;;;;;;;;;5116997;28;20396;-68
2021/09/12 04:49:48;;;;;;;10.48;8.23;;;;;;;;;;5116722;28;20024;-68
2021/09/12 04:52:14;;;;;;;10.43;8.43;;;;;;;;;;5116513;28;20479;-68
2021/09/12 04:54:40;;;;;;;10.50;8.18;;;;;;;;;;5116600;28;20046;-71
2021/09/12 04:57:06;;;;;;;9.57;8.48;;;;;;;;;;5116512;28;20119;-72
2021/09/12 04:59:33;;;;;;;15.18;8.80;;;;;;;;;;5116221;28;20027;-71
2021/09/12 05:01:59;;;;;;;10.65;8.10;;;;;;;;;;5116347;28;20020;-71
2021/09/12 05:04:25;;;;;;;11.00;8.98;;;;;;;;;;5116207;28;20032;-71
2021/09/12 05:06:51;;;;;;;10.25;7.55;;;;;;;;;;5116355;28;20070;-74
2021/09/12 05:09:17;;;;;;;9.77;7.75;;;;;;;;;;5116298;28;20023;-73
2021/09/12 05:11:43;;;;;;;12.23;6.82;;;;;;;;;;5116235;28;20433;-72
2021/09/12 05:14:09;;;;;;;8.82;6.97;;;;;;;;;;5116268;28;20031;-72
2021/09/12 05:16:35;;;;;;;10.95;7.10;;;;;;;;;;5116370;28;20032;-73
2021/09/12 05:19:01;;;;;;;11.57;7.32;;;;;;;;;;5115754;28;20027;-73
2021/09/12 05:21:27;;;;;;;12.55;7.25;;;;;;;;;;5116207;28;20024;-72
2021/09/12 05:23:53;;;;;;;14.57;6.93;;;;;;;;;;5116135;27;20102;-73
2021/09/12 05:26:19;;;;;;;8.80;7.55;;;;;;;;;;5116086;28;20045;-72
2021/09/12 05:28:45;;;;;;;13.63;7.80;;;;;;;;;;5116032;28;20032;-73
2021/09/12 05:31:11;;;;;;;10.75;8.32;;;;;;;;;;5115968;28;20507;-72
2021/09/12 05:33:38;;;;;;;10.50;7.07;;;;;;;;;;5115672;28;20016;-72
2021/09/12 05:36:04;;;;;;;10.52;7.60;;;;;;;;;;5115662;28;20144;-72
2021/09/12 05:38:30;;;;;;;10.02;7.72;;;;;;;;;;5115771;28;20091;-72
2021/09/12 05:40:56;;;;;;;11.68;6.97;;;;;;;;;;5115898;28;20053;-73
2021/09/12 05:43:22;;;;;;;12.27;7.35;;;;;;;;;;5115395;28;20020;-72
2021/09/12 05:45:48;;;;;;;14.00;7.35;;;;;;;;;;5115177;28;20108;-72
2021/09/12 05:48:14;;;;;;;8.38;7.13;;;;;;;;;;5115583;28;20039;-72
2021/09/12 05:50:40;;;;;;;12.07;6.63;;;;;;;;;;5115377;28;20078;-73
2021/09/12 05:53:09;;;;;;;13.27;7.28;;;;;;;;;;5115216;28;20429;-72
2021/09/12 05:55:35;;;;;;;10.73;6.75;;;;;;;;;;5115458;28;20016;-73
2021/09/12 05:58:01;;;;;;;8.25;7.35;;;;;;;;;;5115265;28;20074;-72
2021/09/12 06:00:27;;;;;;;14.60;7.45;;;;;;;;;;5115574;28;20424;-72
2021/09/12 06:02:53;;;;;;;9.30;7.47;;;;;;;;;;5114727;28;20034;-73
2021/09/12 06:05:19;;;;;;;13.32;7.05;;;;;;;;;;5114967;28;20027;-72
2021/09/12 06:07:45;;;;;;;10.65;6.60;;;;;;;;;;5113341;28;20044;-72
2021/09/12 06:10:11;;;;;;;11.07;7.05;;;;;;;;;;5114908;28;20020;-75
2021/09/12 06:12:37;;;;;;;14.52;8.15;;;;;;;;;;5111988;27;20808;-75
2021/09/12 06:15:04;;;;;;;9.00;7.90;;;;;;;;;;5111780;28;20488;-71
2021/09/12 06:17:32;;;;;;;16.67;8.55;;;;;;;;;;5112153;28;20492;-72
2021/09/12 06:19:58;;;;;;;14.13;7.82;;;;;;;;;;5114454;28;20065;-74
2021/09/12 06:22:24;;;;;;;12.32;8.23;;;;;;;;;;5113218;28;20388;-72
2021/09/12 06:24:50;;;;;;;9.63;7.40;;;;;;;;;;5114549;28;20034;-72
2021/09/12 06:27:16;;;;;;;13.38;8.23;;;;;;;;;;5114301;28;20024;-73
2021/09/12 06:29:42;;;;;;;11.77;8.10;;;;;;;;;;5114475;27;20023;-72
2021/09/12 06:32:08;;;;;;;8.18;7.38;;;;;;;;;;5114687;28;20070;-73
2021/09/12 06:34:35;;;;;;;12.43;8.38;;;;;;;;;;5112918;28;20028;-72
2021/09/12 06:37:01;;;;;;;13.95;8.77;;;;;;;;;;5111372;28;20503;-72
2021/09/12 06:39:27;;;;;;;10.05;8.57;;;;;;;;;;5111678;28;20019;-72
2021/09/12 06:41:53;;;;;;;10.15;8.10;;;;;;;;;;5114043;28;20464;-75
2021/09/12 06:44:19;;;;;;;11.20;7.72;;;;;;;;;;5112694;28;20102;-72
2021/09/12 06:46:46;;;;;;;11.98;7.60;;;;;;;;;;5113892;28;20046;-73
2021/09/12 06:49:12;;;;;;;9.27;7.65;;;;;;;;;;5114046;28;20020;-73
2021/09/12 06:51:38;;;;;;;12.27;7.72;;;;;;;;;;5114245;28;20101;-73
2021/09/12 06:54:04;;;;;;;9.55;6.90;;;;;;;;;;5114003;28;20536;-72
2021/09/12 06:56:30;;;;;;;9.68;7.07;;;;;;;;;;5114185;28;20042;-72
2021/09/12 06:58:56;;;;;;;10.00;6.55;;;;;;;;;;5113208;28;20035;-73
2021/09/12 07:01:22;;;;;;;11.65;6.80;;;;;;;;;;5113997;28;20020;-73
2021/09/12 07:03:48;;;;;;;10.98;6.60;;;;;;;;;;5114082;28;20039;-73
2021/09/12 07:06:14;;;;;;;8.77;6.63;;;;;;;;;;5113942;27;20020;-73
2021/09/12 07:08:40;;;;;;;13.52;6.60;;;;;;;;;;5114161;28;20494;-73
2021/09/12 07:11:07;;;;;;;7.22;5.85;;;;;;;;;;5113661;27;20104;-73
2021/09/12 07:13:33;;;;;;;10.48;6.38;;;;;;;;;;5113750;28;20016;-73
2021/09/12 07:15:59;;;;;;;8.43;6.32;;;;;;;;;;5113819;27;20039;-73
2021/09/12 07:18:25;;;;;;;9.55;6.20;;;;;;;;;;5113772;28;20028;-73
2021/09/12 07:20:51;;;;;;;23.58;7.53;;;;;;;;;;5113870;28;20027;-73
2021/09/12 07:23:17;;;;;;;8.27;6.05;;;;;;;;;;5113379;28;20019;-73
2021/09/12 07:25:43;;;;;;;7.57;5.60;;;;;;;;;;5113880;28;20433;-73
2021/09/12 07:28:09;;;;;;;9.68;5.90;;;;;;;;;;5113742;28;20062;-73
2021/09/12 07:30:35;;;;;;;12.88;5.40;;;;;;;;;;5113385;28;20051;-73
2021/09/12 07:33:01;;;;;;;7.70;4.40;;;;;;;;;;5113410;28;20070;-73
2021/09/12 07:35:27;;;;;;;7.15;4.65;;;;;;;;;;5113599;28;20107;-73
2021/09/12 07:37:53;;;;;;;13.90;4.95;;;;;;;;;;5113144;28;20092;-72
2021/09/12 07:40:19;;;;;;;10.23;4.47;;;;;;;;;;5113190;28;20357;-73
2021/09/12 07:42:47;;;;;;;6.35;4.15;;;;;;;;;;5113410;28;20034;-72
2021/09/12 07:45:13;;;;;;;7.22;4.28;;;;;;;;;;5113134;28;20426;-72
2021/09/12 07:47:39;;;;;;;8.77;4.40;;;;;;;;;;5113398;28;20483;-72
2021/09/12 07:50:06;;;;;;;10.90;5.13;;;;;;;;;;5112082;28;20019;-73
2021/09/12 07:52:32;;;;;;;7.35;4.72;;;;;;;;;;5112977;28;20031;-73
2021/09/12 07:54:58;;;;;;;8.63;4.57;;;;;;;;;;5112249;28;20012;-72
2021/09/12 07:57:24;;;;;;;8.63;4.18;;;;;;;;;;5113100;28;20111;-72
2021/09/12 07:59:50;;;;;;;9.90;4.00;;;;;;;;;;5113278;28;20100;-73
2021/09/12 08:02:16;;;;;;;9.07;4.30;;;;;;;;;;5113231;28;20537;-72
2021/09/12 08:04:42;;;;;;;6.50;4.30;;;;;;;;;;5113401;28;20153;-74
2021/09/12 08:07:08;;;;;;;7.93;4.45;;;;;;;;;;5112744;28;20027;-73
2021/09/12 08:09:34;;;;;;;6.90;4.20;;;;;;;;;;5114730;28;20478;-73
2021/09/12 08:12:00;;;;;;;7.38;4.20;;;;;;;;;;5117295;27;20019;-72
2021/09/12 08:14:26;;;;;;;7.70;3.97;;;;;;;;;;5117463;28;20035;-73
2021/09/12 08:16:53;;;;;;;8.60;3.78;;;;;;;;;;5117255;28;20463;-74
2021/09/12 08:19:19;;;;;;;7.28;4.13;;;;;;;;;;5117411;28;20107;-72
2021/09/12 08:21:45;;;;;;;8.95;3.88;;;;;;;;;;5115486;28;20039;-74
2021/09/12 08:24:11;;;;;;;9.75;3.80;;;;;;;;;;5117077;28;20085;-72
2021/09/12 08:26:38;;;;;;;6.38;3.78;;;;;;;;;;5116928;28;20122;-72
2021/09/12 08:29:04;;;;;;;6.80;3.70;;;;;;;;;;5117070;28;20058;-71
2021/09/12 08:31:30;;;;;;;11.52;4.20;;;;;;;;;;5116913;28;20080;-73
2021/09/12 08:33:56;;;;;;;10.02;4.13;;;;;;;;;;5116883;28;20030;-72
2021/09/12 08:36:23;;;;;;;10.02;4.10;;;;;;;;;;5114953;28;20495;-74
2021/09/12 08:38:49;;;;;;;13.13;5.43;;;;;;;;;;5116451;28;20030;-73
2021/09/12 08:41:15;;;;;;;8.85;4.25;;;;;;;;;;5116499;28;20120;-72
2021/09/12 08:43:41;;;;;;;7.72;4.10;;;;;;;;;;5116378;28;20031;-73
2021/09/12 08:46:08;;;;;;;9.73;4.20;;;;;;;;;;5116687;28;20027;-73
2021/09/12 08:48:37;;;;;;;7.20;4.25;;;;;;;;;;5116320;28;20464;-74
2021/09/12 08:51:04;;;;;;;12.90;4.32;;;;;;;;;;5116098;28;20020;-73
2021/09/12 08:53:30;;;;;;;9.90;3.90;;;;;;;;;;5116047;28;20030;-74
2021/09/12 08:55:56;;;;;;;8.75;3.80;;;;;;;;;;5116178;28;20058;-74
2021/09/12 08:58:22;;;;;;;5.72;3.80;;;;;;;;;;5115752;28;20039;-73
2021/09/12 09:00:48;;;;;;;9.30;4.10;;;;;;;;;;5116135;28;20020;-74
2021/09/12 09:03:14;;;;;;;5.15;3.92;;;;;;;;;;5115868;28;20024;-73
2021/09/12 09:05:41;;;;;;;5.90;3.78;;;;;;;;;;5116154;28;20027;-73
2021/09/12 09:08:07;;;;;;;12.73;3.72;;;;;;;;;;5110834;27;20030;-72
2021/09/12 09:10:53;;;;;;;5.80;3.90;;;;;;;;;;5115979;28;20024;-73
2021/09/12 09:13:25;;;;;;;6.90;3.85;;;;;;;;;;5116254;28;20114;-73
2021/09/12 09:15:51;;;;;;;9.73;3.80;;;;;;;;;;5115764;28;20019;-73
2021/09/12 09:18:17;;;;;;;9.00;3.67;;;;;;;;;;5115898;28;20409;-73
2021/09/12 09:20:43;;;;;;;5.50;3.47;;;;;;;;;;5115189;28;20095;-73
2021/09/12 09:23:09;;;;;;;6.90;3.95;;;;;;;;;;5115983;28;20110;-72
2021/09/12 09:25:35;;;;;;;4.78;3.28;;;;;;;;;;5115902;28;20100;-72
2021/09/12 09:28:09;;;;;;;5.78;3.75;;;;;;;;;;5114588;28;20607;-73
2021/09/12 09:30:49;;;;;;;5.82;3.83;;;;;;;;;;5115451;28;20024;-73
2021/09/12 09:33:22;;;;;;;5.53;4.13;;;;;;;;;;5115057;28;20093;-73
2021/09/12 09:35:51;;;;;;;9.27;3.83;;;;;;;;;;5115508;28;20069;-73
2021/09/12 09:38:18;;;;;;;8.25;4.25;;;;;;;;;;5115417;28;20093;-72
2021/09/12 09:41:04;;;;;;;9.07;4.30;;;;;;;;;;5115433;28;20500;-73
2021/09/12 09:43:39;;;;;;;13.45;4.68;;;;;;;;;;5115640;27;20028;-73
2021/09/12 09:46:05;;;;;;;7.88;3.90;;;;;;;;;;5115140;28;20502;-72
2021/09/12 09:48:33;;;;;;;4.60;3.80;;;;;;;;;;5114588;28;20098;-74
2021/09/12 09:50:59;;;;;;;6.90;3.58;;;;;;;;;;5115634;28;20038;-73
2021/09/12 09:53:26;;;;;;;8.60;4.43;;;;;;;;;;5113909;28;20073;-73
2021/09/12 09:55:53;;;;;;;8.75;4.03;;;;;;;;;;5114762;28;20048;-74
2021/09/12 09:58:19;;;;;;;9.63;4.38;;;;;;;;;;5072103;27;20052;-73
2021/09/12 10:00:46;;;;;;;10.10;3.88;;;;;;;;;;5073841;28;20028;-73
2021/09/12 10:03:17;;;;;;;6.78;3.60;;;;;;;;;;5074052;28;20024;-73
2021/09/12 10:05:44;;;;;;;10.27;3.92;;;;;;;;;;5074122;28;20029;-73
2021/09/12 10:08:10;;;;;;;6.78;3.97;;;;;;;;;;5074503;28;20031;-73
2021/09/12 10:10:36;;;;;;;6.35;3.90;;;;;;;;;;5074010;28;20073;-73
2021/09/12 10:13:02;;;;;;;5.85;3.55;;;;;;;;;;5070388;28;20029;-72
2021/09/12 10:15:34;;;;;;;5.47;3.45;;;;;;;;;;5071306;28;20516;-73
2021/09/12 10:18:00;;;;;;;7.25;3.80;;;;;;;;;;5071520;28;20040;-73
2021/09/12 10:20:27;;;;;;;6.90;3.90;;;;;;;;;;5073931;28;20382;-73
2021/09/12 10:23:01;;;;;;;10.02;4.30;;;;;;;;;;5074185;28;20100;-73
2021/09/12 10:25:28;;;;;;;8.90;3.78;;;;;;;;;;5074319;28;20070;-71
2021/09/12 10:27:57;;;;;;;6.10;3.70;;;;;;;;;;5074337;28;20387;-72
2021/09/12 10:30:27;;;;;;;5.10;3.75;;;;;;;;;;5073977;28;20130;-73
2021/09/12 10:33:20;;;;;;;9.98;3.97;;;;;;;;;;5073414;28;20024;-73
2021/09/12 10:35:45;;;;;;;;;;;;;;;;;;5070929;28;20062;-73
2021/09/12 10:38:12;;;;;;;7.72;3.30;;;;;;;;;;5073754;28;19912;-73
2021/09/12 10:40:48;;;;;;;8.30;3.80;;;;;;;;;;5073565;28;20100;-73
2021/09/12 10:43:26;;;;;;;8.82;3.50;;;;;;;;;;5073437;28;20074;-73
2021/09/12 10:46:12;;;;;;;5.95;3.17;;;;;;;;;;5073630;28;20024;-72
2021/09/12 10:48:44;;;;;;;8.60;3.70;;;;;;;;;;5065873;28;20040;-73
2021/09/12 10:51:19;;;;;;;6.68;3.63;;;;;;;;;;5073829;28;20017;-73
2021/09/12 10:53:45;;;;;;;7.47;3.42;;;;;;;;;;5072571;28;20025;-73
2021/09/12 10:56:17;;;;;;;12.68;3.58;;;;;;;;;;5073168;28;20024;-73
2021/09/12 10:58:51;;;;;;;8.88;3.58;;;;;;;;;;5070155;28;20063;-73
2021/09/12 11:01:39;;;;;;;7.30;3.45;;;;;;;;;;5071046;28;20496;-75
2021/09/12 11:04:05;;;;;;;6.88;3.35;;;;;;;;;;5069227;28;20525;-72
2021/09/12 11:06:33;;;;;;;9.05;3.35;;;;;;;;;;5073157;28;20465;-72
2021/09/12 11:08:59;;;;;;;6.40;3.47;;;;;;;;;;5071146;28;20565;-72
2021/09/12 11:11:26;;;;;;;8.93;3.45;;;;;;;;;;5073053;28;20033;-72
2021/09/12 11:13:53;;;;;;;8.65;3.65;;;;;;;;;;5073035;28;20442;-71
2021/09/12 11:16:21;;;;;;;6.43;3.50;;;;;;;;;;5073176;28;20032;-73
2021/09/12 11:18:52;;;;;;;5.65;3.28;;;;;;;;;;5073139;28;20431;-72
2021/09/12 11:21:24;;;;;;;8.50;3.38;;;;;;;;;;5072917;28;20063;-73
2021/09/12 11:23:55;;;;;;;10.07;3.38;;;;;;;;;;5073388;28;20020;-73
2021/09/12 11:26:21;;;;;;;6.85;3.15;;;;;;;;;;5073088;28;20025;-71
2021/09/12 11:28:58;;;;;;;7.55;3.50;;;;;;;;;;5072849;28;20070;-72
2021/09/12 11:31:28;;;;;;;7.53;3.40;;;;;;;;;;5073124;28;20025;-71
2021/09/12 11:33:54;;;;;;;8.13;3.30;;;;;;;;;;5071488;28;20024;-72
2021/09/12 11:36:22;;;;;;;6.18;3.20;;;;;;;;;;5071806;28;20041;-71
2021/09/12 11:38:58;;;;;;;7.22;3.42;;;;;;;;;;5072334;28;20032;-71
2021/09/12 11:41:28;;;;;;;8.40;4.00;;;;;;;;;;5070855;28;20078;-72
2021/09/12 11:43:58;;;;;;;4.68;3.50;;;;;;;;;;5069829;28;20384;-72
2021/09/12 11:46:24;;;;;;;9.38;3.20;;;;;;;;;;5070178;28;20510;-73
2021/09/12 11:48:55;;;;;;;5.32;3.60;;;;;;;;;;5072529;28;20017;-71
2021/09/12 11:51:28;;;;;;;9.50;3.70;;;;;;;;;;5072149;28;20024;-70
2021/09/12 11:54:06;;;;;;;10.77;3.35;;;;;;;;;;5072326;28;20082;-72
2021/09/12 11:56:32;;;;;;;4.20;2.95;;;;;;;;;;5072733;28;20029;-70
2021/09/12 11:58:59;;;;;;;7.38;3.00;;;;;;;;;;5071270;28;20047;-70
2021/09/12 12:01:25;;;;;;;7.40;3.53;;;;;;;;;;5072847;28;20016;-69
2021/09/12 12:03:51;;;;;;;5.03;3.40;;;;;;;;;;5072722;28;20032;-69
2021/09/12 12:06:18;;;;;;;5.55;2.90;;;;;;;;;;5072464;28;20021;-70
2021/09/12 12:09:02;;;;;;;5.15;3.60;;;;;;;;;;5072003;28;20035;-70
2021/09/12 12:11:28;;;;;;;9.10;3.17;;;;;;;;;;5072353;28;20104;-70
2021/09/12 12:13:55;;;;;;;5.80;2.80;;;;;;;;;;5072055;28;20056;-69
2021/09/12 12:16:21;;;;;;;6.90;3.50;;;;;;;;;;5069422;28;20032;-69
2021/09/12 12:18:59;;;;;;;9.43;3.13;;;;;;;;;;5069282;28;20045;-70
2021/09/12 12:21:30;;;;;;;10.18;3.35;;;;;;;;;;5071587;28;20037;-70
2021/09/12 12:23:56;;;;;;;6.03;3.38;;;;;;;;;;5072352;28;20024;-69
2021/09/12 12:26:23;;;;;;;9.07;3.95;;;;;;;;;;5072532;28;20024;-69
2021/09/12 12:28:58;;;;;;;8.00;3.08;;;;;;;;;;5069313;28;20029;-70
2021/09/12 12:31:25;;;;;;;6.53;2.80;;;;;;;;;;5069960;28;20036;-70
2021/09/12 12:33:51;;;;;;;5.00;3.00;;;;;;;;;;5072151;28;20024;-70
2021/09/12 12:36:19;;;;;;;6.25;2.83;;;;;;;;;;5072021;28;20064;-70
2021/09/12 12:38:46;;;;;;;7.38;2.83;;;;;;;;;;5072140;28;20412;-70
2021/09/12 12:41:13;;;;;;;5.82;2.85;;;;;;;;;;5072728;28;20028;-69
2021/09/12 12:43:40;;;;;;;5.63;2.80;;;;;;;;;;5072457;28;20495;-70
2021/09/12 12:46:06;;;;;;;4.68;3.38;;;;;;;;;;5072455;28;20024;-69
2021/09/12 12:48:34;;;;;;;9.00;3.17;;;;;;;;;;5072503;28;20491;-69
2021/09/12 12:51:11;;;;;;;3.38;3.08;;;;;;;;;;5072594;28;20074;-69
2021/09/12 12:53:40;;;;;;;10.52;3.17;;;;;;;;;;5069123;28;20032;-70
2021/09/12 12:56:06;;;;;;;5.00;3.10;;;;;;;;;;5070224;28;20060;-69
2021/09/12 12:58:33;;;;;;;4.43;2.78;;;;;;;;;;5073809;28;20435;-70
2021/09/12 13:01:01;;;;;;;5.82;2.95;;;;;;;;;;5075568;28;20048;-69
2021/09/12 13:03:27;;;;;;;7.45;3.15;;;;;;;;;;5075800;28;20028;-69
2021/09/12 13:05:53;;;;;;;6.70;3.00;;;;;;;;;;5075765;28;20029;-69
2021/09/12 13:08:22;;;;;;;7.28;2.78;;;;;;;;;;5075489;28;20078;-69
2021/09/12 13:10:49;;;;;;;9.68;2.97;;;;;;;;;;5075756;28;20025;-69
2021/09/12 13:13:16;;;;;;;9.98;2.78;;;;;;;;;;5075708;28;20028;-69
2021/09/12 13:15:42;;;;;;;7.30;2.63;;;;;;;;;;5075431;28;20013;-69
2021/09/12 13:18:08;;;;;;;4.82;3.05;;;;;;;;;;5075511;28;20050;-69
2021/09/12 13:20:35;;;;;;;3.42;2.75;;;;;;;;;;5075604;28;20042;-69
2021/09/12 13:23:01;;;;;;;7.07;2.83;;;;;;;;;;5075252;28;20086;-69
2021/09/12 13:25:27;;;;;;;8.48;3.08;;;;;;;;;;5075642;28;20100;-69
2021/09/12 13:27:54;;;;;;;5.70;2.53;;;;;;;;;;5075639;28;20021;-70
2021/09/12 13:30:21;;;;;;;4.38;2.78;;;;;;;;;;5075277;28;20469;-70
2021/09/12 13:32:47;;;;;;;4.68;2.70;;;;;;;;;;5075363;28;20031;-69
2021/09/12 13:35:13;;;;;;;5.10;2.70;;;;;;;;;;5075302;28;20028;-69
2021/09/12 13:37:40;;;;;;;7.32;3.13;;;;;;;;;;5074741;28;20481;-70
2021/09/12 13:40:07;;;;;;;4.30;2.72;;;;;;;;;;5074944;28;20099;-70
2021/09/12 13:42:33;;;;;;;4.40;2.63;;;;;;;;;;5074978;28;20025;-70
2021/09/12 13:44:59;;;;;;;7.78;2.95;;;;;;;;;;5074720;28;20025;-69
2021/09/12 13:47:25;;;;;;;6.10;3.47;;;;;;;;;;5075146;28;20441;-69
2021/09/12 13:49:51;;;;;;;5.47;2.88;;;;;;;;;;5075273;28;20028;-69
2021/09/12 13:52:18;;;;;;;7.05;2.83;;;;;;;;;;5074617;28;20028;-69
2021/09/12 13:54:44;;;;;;;4.45;2.63;;;;;;;;;;5074851;28;20056;-69
2021/09/12 13:57:10;;;;;;;3.13;2.42;;;;;;;;;;5074693;28;20040;-69
2021/09/12 13:59:36;;;;;;;6.85;3.10;;;;;;;;;;5074760;28;20039;-69
2021/09/12 14:02:02;;;;;;;6.10;2.90;;;;;;;;;;5074896;28;20024;-70
2021/09/12 14:04:28;;;;;;;7.45;3.00;;;;;;;;;;5074779;28;20024;-69
2021/09/12 14:06:54;;;;;;;12.95;3.58;;;;;;;;;;5074139;28;20036;-69
2021/09/12 14:09:20;;;;;;;6.45;2.75;;;;;;;;;;5074822;28;20025;-69
2021/09/12 14:11:46;;;;;;;3.75;3.00;;;;;;;;;;5074468;28;20032;-69
2021/09/12 14:14:12;;;;;;;5.82;3.28;;;;;;;;;;5074369;28;20410;-69
2021/09/12 14:16:38;;;;;;;6.28;2.90;;;;;;;;;;5074655;28;20131;-69
2021/09/12 14:19:04;;;;;;;4.15;2.65;;;;;;;;;;5074381;28;20390;-70
2021/09/12 14:21:30;;;;;;;6.03;2.55;;;;;;;;;;5074219;28;20020;-69
2021/09/12 14:23:56;;;;;;;5.95;3.00;;;;;;;;;;5074117;28;20032;-70
2021/09/12 14:26:22;;;;;;;5.15;3.05;;;;;;;;;;5074230;28;20033;-69
2021/09/12 14:28:48;;;;;;;6.75;2.80;;;;;;;;;;5074189;28;20494;-69
2021/09/12 14:31:18;;;;;;;7.05;3.22;;;;;;;;;;5073906;28;20103;-70
2021/09/12 14:33:44;;;;;;;7.18;2.58;;;;;;;;;;5074113;28;20048;-70
2021/09/12 14:36:10;;;;;;;4.28;2.42;;;;;;;;;;5074044;28;20052;-70